Time;durP1;ratioP1;P1;durP2;ratioP2;P2;SDS_P1;SDS_P2;PMS_P1;PMS_P2;Temp;Humidity;BMP_temperature;BMP_pressure;BME280_temperature;BME280_humidity;BME280_pressure;Samples;Min_cycle;Max_cycle;Signal;HPM_P1;HPM_P2
2022/08/08 00:00:11;;;;;;;10.90;5.50;;;;;21.62;97627.60;;;;111200;1247;41846;-67
2022/08/08 00:03:47;;;;;;;20.40;5.70;;;;;21.50;97623.60;;;;111120;1247;41159;-67
2022/08/08 00:06:34;;;;;;;10.90;5.10;;;;;21.48;97623.20;;;;111036;1247;41267;-68
2022/08/08 00:09:13;;;;;;;10.50;4.80;;;;;21.50;97622.60;;;;111044;1247;41280;-68
2022/08/08 00:11:52;;;;;;;10.90;4.60;;;;;21.50;97625.20;;;;111139;1248;41257;-68
2022/08/08 00:15:15;;;;;;;9.80;4.70;;;;;21.50;97622.40;;;;111081;1247;42513;-68
2022/08/08 00:18:01;;;;;;;10.10;4.70;;;;;21.50;97618.40;;;;110961;1250;41210;-68
2022/08/08 00:20:43;;;;;;;9.70;4.50;;;;;21.50;97616.20;;;;111156;1246;41134;-68
2022/08/08 00:23:16;;;;;;;10.40;5.20;;;;;21.50;97611.20;;;;111228;1246;41276;-68
2022/08/08 00:25:51;;;;;;;9.60;4.50;;;;;21.40;97613.60;;;;111079;1247;41152;-68
2022/08/08 00:28:41;;;;;;;9.60;4.80;;;;;21.40;97617.40;;;;111117;1247;41251;-68
2022/08/08 00:31:17;;;;;;;11.50;4.60;;;;;21.30;97613.60;;;;111311;1247;41611;-68
2022/08/08 00:37:37;;;;;;;9.60;4.60;;;;;21.22;97620.20;;;;110980;1247;41159;-68
2022/08/08 00:40:22;;;;;;;10.20;4.50;;;;;21.20;97622.80;;;;111133;1247;42408;-67
2022/08/08 00:43:44;;;;;;;8.60;4.10;;;;;21.18;97620.20;;;;111394;1247;41193;-68
2022/08/08 00:47:06;;;;;;;9.60;4.20;;;;;21.20;97619.00;;;;111173;1245;41241;-68
2022/08/08 00:50:24;;;;;;;9.80;4.80;;;;;21.20;97615.80;;;;110940;1249;41740;-68
2022/08/08 00:53:23;;;;;;;11.60;4.60;;;;;21.20;97616.60;;;;110713;1247;42413;-69
2022/08/08 00:56:19;;;;;;;10.60;4.80;;;;;21.20;97615.60;;;;110888;1247;41263;-68
2022/08/08 00:58:53;;;;;;;8.90;4.60;;;;;21.12;97611.80;;;;111126;1247;41143;-68
2022/08/08 01:02:00;;;;;;;8.80;4.20;;;;;21.10;97614.40;;;;111384;1247;41521;-68
2022/08/08 01:04:51;;;;;;;8.60;4.40;;;;;21.10;97614.80;;;;111320;1246;41141;-67
2022/08/08 01:07:24;;;;;;;9.00;4.40;;;;;21.08;97617.20;;;;111015;1247;41240;-67
2022/08/08 01:10:41;;;;;;;9.20;3.90;;;;;21.10;97615.80;;;;111282;1247;41579;-67
2022/08/08 01:13:36;;;;;;;9.30;4.80;;;;;21.10;97618.40;;;;111004;1247;41132;-67
2022/08/08 01:16:31;;;;;;;9.10;4.60;;;;;21.00;97620.40;;;;111097;1248;41286;-67
2022/08/08 01:19:39;;;;;;;10.40;5.20;;;;;20.96;97612.60;;;;109685;1248;1674656;-68
2022/08/08 01:22:40;;;;;;;11.70;5.60;;;;;20.86;97612.40;;;;111191;1247;41192;-66
2022/08/08 01:25:49;;;;;;;11.30;5.40;;;;;20.80;97610.60;;;;111150;1247;41604;-68
2022/08/08 01:28:59;;;;;;;9.20;4.60;;;;;20.70;97608.40;;;;111184;1248;41262;-68
2022/08/08 01:31:39;;;;;;;14.30;4.40;;;;;20.70;97609.80;;;;111031;1247;41656;-68
2022/08/08 01:35:03;;;;;;;11.20;4.50;;;;;20.70;97603.00;;;;111148;1247;41716;-68
2022/08/08 01:38:02;;;;;;;9.10;4.30;;;;;20.80;97605.20;;;;111179;1247;42031;-68
2022/08/08 01:40:48;;;;;;;10.30;4.20;;;;;20.80;97602.60;;;;111060;1247;41156;-68
2022/08/08 01:43:47;;;;;;;8.70;4.00;;;;;20.80;97601.40;;;;110675;1250;41131;-67
2022/08/08 01:47:05;;;;;;;9.10;4.50;;;;;20.82;97603.80;;;;111223;1248;41248;-68
2022/08/08 01:50:27;;;;;;;11.60;4.70;;;;;20.90;97609.20;;;;111128;1248;41142;-68
2022/08/08 01:53:21;;;;;;;9.00;4.50;;;;;20.94;97602.20;;;;110463;1248;41205;-68
2022/08/08 01:56:32;;;;;;;8.40;4.20;;;;;21.00;97604.40;;;;111088;1249;41251;-68
2022/08/08 01:59:43;;;;;;;9.10;4.20;;;;;21.10;97601.80;;;;111017;1247;41738;-68
2022/08/08 02:02:57;;;;;;;8.00;4.00;;;;;21.08;97596.00;;;;111167;1247;41261;-67
2022/08/08 02:05:39;;;;;;;10.30;4.50;;;;;21.00;97596.60;;;;110984;1247;41166;-67
2022/08/08 02:08:51;;;;;;;9.50;4.40;;;;;20.90;97597.80;;;;111043;1248;41712;-67
2022/08/08 02:11:38;;;;;;;8.60;4.00;;;;;20.84;97599.40;;;;110868;1249;41136;-67
2022/08/08 02:15:10;;;;;;;8.60;4.30;;;;;20.80;97595.40;;;;110862;1248;41152;-68
2022/08/08 02:17:52;;;;;;;8.60;4.30;;;;;20.72;97599.60;;;;110670;1250;41306;-67
2022/08/08 02:20:35;;;;;;;8.40;3.90;;;;;20.70;97599.60;;;;111062;1249;42844;-68
2022/08/08 02:23:35;;;;;;;7.80;3.60;;;;;20.70;97605.80;;;;111124;1250;41721;-68
2022/08/08 02:26:15;;;;;;;7.30;3.30;;;;;20.74;97602.20;;;;111101;1248;42242;-67
2022/08/08 02:29:22;;;;;;;6.90;3.40;;;;;20.80;97601.60;;;;111011;1249;41722;-66
2022/08/08 02:32:11;;;;;;;6.40;2.90;;;;;20.80;97603.20;;;;110968;1248;41751;-68
2022/08/08 02:35:09;;;;;;;7.20;3.10;;;;;20.88;97605.80;;;;111201;1248;41571;-68
2022/08/08 02:38:18;;;;;;;8.70;3.80;;;;;20.90;97616.00;;;;111089;1248;41155;-68
2022/08/08 02:41:46;;;;;;;9.70;3.60;;;;;20.90;97618.40;;;;111110;1247;41306;-68
2022/08/08 02:44:42;;;;;;;7.20;3.10;;;;;20.90;97618.00;;;;111290;1247;41152;-68
2022/08/08 02:47:49;;;;;;;7.10;3.30;;;;;20.90;97613.40;;;;111234;1248;41253;-68
2022/08/08 02:50:49;;;;;;;7.10;3.00;;;;;20.90;97617.60;;;;110869;1250;41650;-67
2022/08/08 02:53:40;;;;;;;8.00;3.40;;;;;20.94;97622.40;;;;111139;1246;41254;-66
2022/08/08 02:56:36;;;;;;;10.30;4.90;;;;;21.00;97623.00;;;;111260;1247;41251;-67
2022/08/08 02:59:39;;;;;;;9.70;4.00;;;;;21.00;97622.20;;;;111310;1247;41163;-67
2022/08/08 03:02:48;;;;;;;9.70;4.80;;;;;21.00;97630.40;;;;111112;1247;41251;-68
2022/08/08 03:06:01;;;;;;;10.00;4.70;;;;;20.90;97637.60;;;;110844;1250;41253;-69
2022/08/08 03:08:57;;;;;;;7.20;3.40;;;;;20.80;97634.60;;;;110769;1250;41652;-67
2022/08/08 03:11:42;;;;;;;7.80;3.70;;;;;20.80;97638.40;;;;110998;1250;42080;-67
2022/08/08 03:14:56;;;;;;;6.90;3.20;;;;;20.80;97639.40;;;;111021;1247;41476;-67
2022/08/08 03:18:26;;;;;;;9.80;4.00;;;;;20.80;97642.60;;;;111228;1247;41133;-68
2022/08/08 03:21:00;;;;;;;7.60;3.50;;;;;20.74;97650.40;;;;110778;1250;41651;-68
2022/08/08 03:23:38;;;;;;;8.30;3.40;;;;;20.80;97646.60;;;;111066;1250;41260;-67
2022/08/08 03:26:35;;;;;;;7.00;3.20;;;;;20.80;97648.20;;;;111113;1250;41140;-68
2022/08/08 03:29:19;;;;;;;7.90;3.20;;;;;20.80;97649.80;;;;111089;1248;41178;-67
2022/08/08 03:34:58;;;;;;;7.30;3.20;;;;;20.86;97654.40;;;;111016;1249;41197;-67
2022/08/08 03:37:28;;;;;;;7.60;3.40;;;;;20.90;97651.60;;;;110769;1249;42725;-68
2022/08/08 03:40:20;;;;;;;7.00;3.00;;;;;20.90;97654.60;;;;110891;1248;41358;-68
2022/08/08 03:43:02;;;;;;;8.50;3.40;;;;;20.90;97653.80;;;;111131;1248;41141;-68
2022/08/08 03:45:45;;;;;;;8.90;3.20;;;;;21.00;97658.20;;;;111031;1250;41156;-68
2022/08/08 03:48:35;;;;;;;7.80;3.40;;;;;21.00;97662.60;;;;111237;1248;41152;-67
2022/08/08 03:51:28;;;;;;;7.60;3.20;;;;;21.02;97661.40;;;;111070;1248;42410;-67
2022/08/08 03:54:18;;;;;;;;;;;;;21.10;97656.60;;;;111154;1248;41172;-68
2022/08/08 03:57:12;;;;;;;9.10;3.90;;;;;21.04;97653.20;;;;111024;1249;43091;-67
2022/08/08 04:00:13;;;;;;;11.00;4.90;;;;;21.10;97657.20;;;;110649;1251;41266;-67
2022/08/08 04:03:01;;;;;;;8.90;4.20;;;;;21.00;97654.20;;;;111313;1250;41514;-67
2022/08/08 04:05:35;;;;;;;12.70;5.40;;;;;21.00;97659.60;;;;110612;1251;41264;-67
2022/08/08 04:08:08;;;;;;;12.40;5.20;;;;;21.00;97660.40;;;;110691;1251;41217;-69
2022/08/08 04:10:37;;;;;;;15.70;5.80;;;;;20.94;97657.20;;;;110853;1248;42424;-67
2022/08/08 04:13:08;;;;;;;12.70;5.00;;;;;20.90;97657.00;;;;111011;1250;42843;-66
2022/08/08 04:15:48;;;;;;;9.80;4.60;;;;;21.00;97658.40;;;;111057;1248;41561;-67
2022/08/08 04:18:23;;;;;;;9.60;4.20;;;;;21.00;97657.80;;;;110704;1250;41226;-67
2022/08/08 04:20:53;;;;;;;9.40;4.30;;;;;21.10;97662.20;;;;110948;1249;41963;-67
2022/08/08 04:23:23;;;;;;;9.40;4.10;;;;;21.20;97665.40;;;;111038;1250;41188;-67
2022/08/08 04:25:52;;;;;;;12.10;4.60;;;;;21.24;97666.80;;;;110965;1248;41636;-67
2022/08/08 04:28:22;;;;;;;10.90;4.50;;;;;21.30;97667.00;;;;111274;1247;41334;-67
2022/08/08 04:31:05;;;;;;;10.90;4.50;;;;;21.40;97667.00;;;;111106;1247;41605;-66
2022/08/08 04:33:35;;;;;;;11.70;5.30;;;;;21.44;97666.40;;;;110845;1247;41356;-66
2022/08/08 04:36:10;;;;;;;12.30;5.50;;;;;21.50;97667.40;;;;111306;1247;41633;-67
2022/08/08 04:38:40;;;;;;;11.50;5.50;;;;;21.50;97662.00;;;;111084;1247;41130;-67
2022/08/08 04:41:10;;;;;;;;;;;;;21.50;97662.80;;;;111072;1249;41169;-67
2022/08/08 04:43:45;;;;;;;14.00;6.30;;;;;21.50;97660.60;;;;111318;1247;41152;-67
2022/08/08 04:46:20;;;;;;;14.30;6.70;;;;;21.50;97667.40;;;;111190;1247;41709;-67
2022/08/08 04:48:50;;;;;;;;;;;;;21.60;97670.40;;;;111224;1247;41146;-67
2022/08/08 04:51:19;;;;;;;10.20;4.60;;;;;21.64;97668.00;;;;111367;1247;41731;-67
2022/08/08 04:53:52;;;;;;;12.70;4.70;;;;;21.78;97667.00;;;;111355;1247;41182;-69
2022/08/08 04:56:42;;;;;;;11.50;4.60;;;;;21.90;97667.60;;;;111268;1247;41709;-70
2022/08/08 04:59:13;;;;;;;11.20;5.30;;;;;22.00;97671.00;;;;111036;1248;41168;-69
2022/08/08 05:01:44;;;;;;;11.70;5.20;;;;;22.04;97672.20;;;;111088;1248;41149;-69
2022/08/08 05:04:16;;;;;;;10.60;5.30;;;;;22.10;97672.40;;;;111173;1248;41154;-68
2022/08/08 05:06:47;;;;;;;10.30;4.90;;;;;22.10;97672.20;;;;111359;1247;41957;-68
2022/08/08 05:09:24;;;;;;;9.40;4.70;;;;;22.14;97677.20;;;;111038;1249;41155;-68
2022/08/08 05:11:55;;;;;;;11.80;4.20;;;;;22.20;97677.20;;;;110902;1250;41198;-69
2022/08/08 05:14:28;;;;;;;8.90;3.90;;;;;22.30;97680.20;;;;111006;1250;41268;-67
2022/08/08 05:17:01;;;;;;;7.70;3.70;;;;;22.48;97685.60;;;;111202;1248;41140;-69
2022/08/08 05:19:37;;;;;;;11.50;4.50;;;;;22.60;97680.80;;;;111159;1249;41593;-69
2022/08/08 05:22:34;;;;;;;10.00;4.50;;;;;22.80;97686.00;;;;110915;1249;41165;-68
2022/08/08 05:25:06;;;;;;;9.80;4.70;;;;;22.90;97694.40;;;;111132;1249;40795;-68
2022/08/08 05:27:37;;;;;;;10.50;5.10;;;;;23.00;97692.80;;;;110968;1250;41264;-68
2022/08/08 05:30:10;;;;;;;8.80;4.10;;;;;23.10;97691.80;;;;111240;1248;41595;-68
2022/08/08 05:32:46;;;;;;;9.60;4.30;;;;;23.20;97690.80;;;;110937;1250;41144;-69
2022/08/08 05:35:24;;;;;;;7.70;3.40;;;;;23.36;97690.00;;;;110868;1249;41249;-67
2022/08/08 05:38:05;;;;;;;9.70;3.70;;;;;23.50;97685.00;;;;111158;1248;41142;-67
2022/08/08 05:41:03;;;;;;;7.60;3.20;;;;;23.76;97691.20;;;;110980;1249;41142;-70
2022/08/08 05:43:34;;;;;;;7.00;3.20;;;;;23.92;97689.60;;;;110933;1251;41148;-70
2022/08/08 05:46:09;;;;;;;7.70;3.60;;;;;24.10;97692.80;;;;111106;1248;41579;-67
2022/08/08 05:48:40;;;;;;;8.20;4.10;;;;;24.20;97691.00;;;;110932;1249;41338;-68
2022/08/08 05:51:13;;;;;;;9.40;4.10;;;;;24.26;97688.20;;;;111153;1249;41517;-70
2022/08/08 05:53:46;;;;;;;8.90;3.70;;;;;24.30;97688.40;;;;110889;1250;41688;-68
2022/08/08 05:56:42;;;;;;;7.70;3.40;;;;;24.40;97690.40;;;;111045;1249;41926;-68
2022/08/08 05:59:20;;;;;;;7.90;3.40;;;;;24.50;97690.20;;;;111244;1248;41166;-67
2022/08/08 06:05:14;;;;;;;9.90;4.10;;;;;24.50;97696.20;;;;110931;1251;41173;-69
2022/08/08 06:08:00;;;;;;;7.70;3.30;;;;;24.60;97701.80;;;;111031;1247;41152;-70
2022/08/08 06:10:40;;;;;;;11.20;3.70;;;;;24.74;97702.20;;;;111417;1247;41140;-70
2022/08/08 06:13:11;;;;;;;13.40;3.60;;;;;24.90;97700.60;;;;111242;1247;42326;-70
2022/08/08 06:15:42;;;;;;;7.20;3.40;;;;;24.80;97699.60;;;;111243;1248;41473;-70
2022/08/08 06:18:26;;;;;;;10.70;3.40;;;;;25.00;97701.80;;;;111092;1250;40840;-71
2022/08/08 06:20:59;;;;;;;7.20;3.30;;;;;25.10;97704.20;;;;111051;1249;41702;-70
2022/08/08 06:23:39;;;;;;;7.70;3.70;;;;;25.10;97703.60;;;;111177;1250;40824;-70
2022/08/08 06:26:23;;;;;;;7.10;3.10;;;;;25.28;97710.40;;;;110874;1249;41178;-69
2022/08/08 06:29:18;;;;;;;7.90;3.30;;;;;25.40;97706.60;;;;110860;1249;41258;-70
2022/08/08 06:32:14;;;;;;;6.60;2.90;;;;;25.50;97706.20;;;;110983;1248;41174;-68
2022/08/08 06:34:52;;;;;;;7.30;2.90;;;;;25.70;97708.80;;;;110941;1251;41616;-69
2022/08/08 06:37:57;;;;;;;7.40;3.10;;;;;25.76;97714.20;;;;110841;1250;41730;-69
2022/08/08 06:40:31;;;;;;;7.00;2.90;;;;;25.90;97713.40;;;;111160;1249;41635;-69
2022/08/08 06:43:14;;;;;;;8.20;3.20;;;;;26.10;97711.00;;;;110893;1248;41291;-69
2022/08/08 06:45:51;;;;;;;9.00;3.40;;;;;26.30;97712.20;;;;110862;1248;41269;-70
2022/08/08 06:48:20;;;;;;;7.00;2.80;;;;;26.40;97709.60;;;;111227;1249;41805;-69
2022/08/08 06:50:49;;;;;;;6.60;2.90;;;;;26.48;97711.80;;;;111294;1248;41270;-68
2022/08/08 06:53:19;;;;;;;;;;;;;26.50;97714.20;;;;111312;1248;41153;-69
2022/08/08 06:55:53;;;;;;;9.40;3.30;;;;;26.70;97714.80;;;;111071;1249;42470;-69
2022/08/08 06:58:31;;;;;;;7.10;3.10;;;;;27.02;97701.20;;;;111203;1250;42336;-69
2022/08/08 07:01:20;;;;;;;7.90;3.20;;;;;27.60;97700.20;;;;111082;1248;41717;-69
2022/08/08 07:04:17;;;;;;;8.40;3.90;;;;;28.20;97697.80;;;;110981;1249;41258;-70
2022/08/08 07:07:09;;;;;;;8.60;3.20;;;;;28.58;97700.40;;;;111134;1250;41179;-69
2022/08/08 07:09:49;;;;;;;7.20;2.90;;;;;28.50;97700.80;;;;110912;1248;41252;-69
2022/08/08 07:12:37;;;;;;;7.00;3.10;;;;;29.18;97702.60;;;;111055;1250;41149;-69
2022/08/08 07:15:14;;;;;;;7.50;3.30;;;;;30.10;97698.20;;;;111152;1247;41321;-69
2022/08/08 07:18:06;;;;;;;7.50;3.60;;;;;30.30;97701.60;;;;111352;1246;41153;-70
2022/08/08 07:21:03;;;;;;;5.20;2.30;;;;;30.20;97704.80;;;;111237;1247;41177;-68
2022/08/08 07:23:53;;;;;;;5.80;2.50;;;;;30.20;97715.20;;;;110905;1247;41164;-69
2022/08/08 07:26:34;;;;;;;10.00;4.20;;;;;30.32;97709.80;;;;110903;1247;41762;-69
2022/08/08 07:29:05;;;;;;;6.70;3.00;;;;;30.24;97708.60;;;;111493;1246;41150;-69
2022/08/08 07:31:40;;;;;;;7.80;2.90;;;;;30.20;97708.80;;;;111267;1247;41267;-66
2022/08/08 07:34:11;;;;;;;7.60;3.10;;;;;30.00;97709.80;;;;111089;1247;41412;-71
2022/08/08 07:36:40;;;;;;;7.40;2.90;;;;;30.10;97709.00;;;;111273;1246;41881;-69
2022/08/08 07:39:23;;;;;;;6.20;2.70;;;;;30.30;97708.20;;;;111226;1247;41157;-69
2022/08/08 07:41:58;;;;;;;7.00;3.10;;;;;29.88;97712.40;;;;111237;1247;41151;-69
2022/08/08 07:44:33;;;;;;;7.80;3.30;;;;;29.82;97702.80;;;;111351;1247;41327;-69
2022/08/08 07:47:11;;;;;;;7.30;2.80;;;;;30.00;97704.00;;;;111280;1247;41943;-69
2022/08/08 07:49:43;;;;;;;9.00;3.30;;;;;30.26;97705.60;;;;111215;1247;42591;-68
2022/08/08 07:52:14;;;;;;;7.50;3.10;;;;;29.96;97709.20;;;;110809;1247;41184;-69
2022/08/08 07:55:03;;;;;;;8.00;3.50;;;;;29.94;97712.60;;;;111191;1246;41715;-68
2022/08/08 07:57:42;;;;;;;7.30;3.40;;;;;30.32;97707.20;;;;111204;1248;40925;-68
2022/08/08 08:00:16;;;;;;;6.80;2.80;;;;;30.38;97705.20;;;;111378;1248;41149;-68
2022/08/08 08:03:03;;;;;;;7.20;3.10;;;;;30.76;97709.80;;;;111027;1248;41593;-69
2022/08/08 08:05:39;;;;;;;6.80;2.60;;;;;31.10;97708.60;;;;111050;1249;41173;-68
2022/08/08 08:08:17;;;;;;;8.40;2.80;;;;;31.52;97708.20;;;;111011;1248;41603;-68
2022/08/08 08:10:51;;;;;;;7.10;3.10;;;;;31.94;97708.40;;;;111157;1247;42136;-69
2022/08/08 08:13:39;;;;;;;6.40;2.60;;;;;31.90;97706.00;;;;111214;1247;41662;-69
2022/08/08 08:16:14;;;;;;;9.70;3.30;;;;;32.30;97705.40;;;;111084;1247;41156;-70
2022/08/08 08:18:47;;;;;;;5.70;2.50;;;;;32.12;97706.40;;;;111487;1246;41728;-70
2022/08/08 08:21:20;;;;;;;5.90;2.70;;;;;32.40;97703.00;;;;111267;1246;41128;-70
2022/08/08 08:24:12;;;;;;;7.30;2.50;;;;;32.62;97703.60;;;;111013;1250;41506;-69
2022/08/08 08:26:41;;;;;;;7.40;3.30;;;;;33.00;97704.60;;;;111191;1247;41763;-69
2022/08/08 08:29:21;;;;;;;9.40;3.10;;;;;32.50;97698.80;;;;111027;1249;41246;-70
2022/08/08 08:31:50;;;;;;;7.20;2.90;;;;;32.80;97694.60;;;;111148;1248;41272;-69
2022/08/08 08:34:26;;;;;;;5.60;2.40;;;;;33.00;97693.80;;;;111048;1248;41823;-71
2022/08/08 08:37:01;;;;;;;6.70;2.80;;;;;33.10;97692.40;;;;111246;1246;41246;-70
2022/08/08 08:39:36;;;;;;;7.80;3.00;;;;;33.26;97689.00;;;;111064;1247;41132;-69
2022/08/08 08:42:27;;;;;;;6.70;3.10;;;;;33.26;97690.00;;;;111301;1247;41555;-70
2022/08/08 08:45:05;;;;;;;6.50;2.70;;;;;32.68;97694.60;;;;111007;1250;41615;-69
2022/08/08 08:47:50;;;;;;;8.90;3.20;;;;;31.98;97700.40;;;;111049;1247;41385;-68
2022/08/08 08:50:22;;;;;;;9.20;4.10;;;;;31.32;97702.20;;;;111328;1247;41152;-68
2022/08/08 08:53:04;;;;;;;10.50;3.80;;;;;30.58;97702.20;;;;111003;1248;41527;-68
2022/08/08 08:55:56;;;;;;;9.30;3.40;;;;;29.62;97706.80;;;;111029;1248;41266;-69
2022/08/08 08:58:38;;;;;;;7.40;3.50;;;;;29.70;97706.80;;;;111064;1248;41142;-69
2022/08/08 09:01:11;;;;;;;7.10;3.00;;;;;29.78;97707.00;;;;111032;1248;41146;-69
2022/08/08 09:03:43;;;;;;;11.60;4.20;;;;;29.72;97708.60;;;;111042;1247;41591;-68
2022/08/08 09:06:19;;;;;;;7.10;3.20;;;;;29.36;97710.60;;;;111292;1246;41611;-68
2022/08/08 09:09:06;;;;;;;10.10;3.60;;;;;29.46;97709.00;;;;111098;1247;41275;-69
2022/08/08 09:11:57;;;;;;;6.40;2.80;;;;;28.86;97709.20;;;;111068;1248;42123;-69
2022/08/08 09:14:32;;;;;;;8.00;3.30;;;;;29.46;97707.00;;;;111068;1248;41132;-68
2022/08/08 09:17:02;;;;;;;8.60;3.40;;;;;29.80;97699.40;;;;111106;1247;41148;-70
2022/08/08 09:19:40;;;;;;;8.30;3.20;;;;;30.00;97694.20;;;;111069;1248;41607;-69
2022/08/08 09:22:30;;;;;;;7.30;2.60;;;;;30.20;97692.80;;;;111206;1248;41164;-68
2022/08/08 09:24:59;;;;;;;7.40;3.20;;;;;30.58;97686.60;;;;111133;1248;41253;-69
2022/08/08 09:27:29;;;;;;;6.90;3.20;;;;;30.62;97684.40;;;;111057;1248;41121;-69
2022/08/08 09:30:18;;;;;;;6.80;2.90;;;;;30.96;97674.20;;;;111207;1246;41653;-69
2022/08/08 09:32:53;;;;;;;7.40;3.00;;;;;31.84;97671.80;;;;111004;1248;41432;-69
2022/08/08 09:35:46;;;;;;;7.40;3.70;;;;;32.76;97668.80;;;;111134;1247;41255;-69
2022/08/08 09:38:30;;;;;;;8.80;3.80;;;;;33.36;97662.40;;;;111343;1247;41253;-69
2022/08/08 09:41:05;;;;;;;7.50;2.90;;;;;33.70;97659.40;;;;111188;1247;41354;-69
2022/08/08 09:43:48;;;;;;;6.20;2.40;;;;;33.76;97657.00;;;;111206;1247;41176;-69
2022/08/08 09:46:35;;;;;;;6.80;2.30;;;;;35.12;97651.40;;;;111129;1247;41263;-69
2022/08/08 09:49:08;;;;;;;7.70;2.70;;;;;36.24;97651.00;;;;111142;1247;41232;-70
2022/08/08 09:51:57;;;;;;;5.30;2.30;;;;;35.88;97647.80;;;;111176;1247;41415;-69
2022/08/08 09:54:37;;;;;;;5.90;2.40;;;;;36.98;97644.40;;;;111174;1248;41262;-70
2022/08/08 09:57:08;;;;;;;6.20;2.40;;;;;37.80;97644.60;;;;111157;1248;41470;-70
2022/08/08 09:59:44;;;;;;;5.60;2.30;;;;;38.66;97639.00;;;;111197;1247;41145;-70
2022/08/08 10:02:42;;;;;;;5.10;2.20;;;;;39.18;97634.20;;;;111164;1247;41236;-69
2022/08/08 10:05:15;;;;;;;8.00;2.40;;;;;39.40;97633.20;;;;111232;1245;41157;-69
2022/08/08 10:07:52;;;;;;;6.50;2.90;;;;;39.12;97631.80;;;;111243;1246;41652;-69
2022/08/08 10:10:31;;;;;;;8.60;2.70;;;;;37.98;97635.00;;;;111232;1247;42181;-70
2022/08/08 10:13:00;;;;;;;6.50;2.40;;;;;36.94;97635.00;;;;111280;1246;41599;-70
2022/08/08 10:15:37;;;;;;;5.80;2.30;;;;;36.24;97631.60;;;;111076;1247;41799;-69
2022/08/08 10:18:06;;;;;;;7.60;3.40;;;;;35.74;97637.00;;;;111280;1246;42402;-71
2022/08/08 10:20:43;;;;;;;8.40;3.30;;;;;35.72;97634.60;;;;111233;1245;41189;-71
2022/08/08 10:23:46;;;;;;;5.80;2.40;;;;;35.44;97633.40;;;;111392;1246;42490;-68
2022/08/08 10:26:32;;;;;;;6.50;2.50;;;;;34.68;97630.20;;;;111034;1248;41880;-68
2022/08/08 10:29:35;;;;;;;5.60;2.20;;;;;34.44;97625.80;;;;111229;1246;41148;-69
2022/08/08 10:32:31;;;;;;;5.50;2.40;;;;;35.10;97618.00;;;;111165;1247;41129;-69
2022/08/08 10:35:14;;;;;;;6.10;2.50;;;;;35.60;97616.40;;;;111317;1246;41609;-69
2022/08/08 10:38:05;;;;;;;6.90;2.70;;;;;35.98;97610.60;;;;111246;1247;41248;-69
2022/08/08 10:40:37;;;;;;;5.00;2.30;;;;;35.90;97611.20;;;;111119;1247;41132;-69
2022/08/08 10:43:06;;;;;;;;;;;;;36.36;97604.20;;;;111193;1247;41719;-69
2022/08/08 10:45:49;;;;;;;6.80;2.80;;;;;36.58;97603.20;;;;111208;1247;41723;-69
2022/08/08 10:48:32;;;;;;;6.90;2.70;;;;;37.00;97593.20;;;;111232;1245;41299;-69
2022/08/08 10:51:24;;;;;;;7.30;2.90;;;;;37.38;97594.80;;;;111207;1246;41156;-69
2022/08/08 10:53:54;;;;;;;7.10;2.70;;;;;37.10;97598.00;;;;111177;1246;41594;-69
2022/08/08 10:56:26;;;;;;;6.80;2.50;;;;;36.40;97598.40;;;;111269;1247;41712;-70
2022/08/08 10:59:00;;;;;;;8.00;2.70;;;;;36.70;97594.00;;;;111092;1247;41234;-70
2022/08/08 11:01:30;;;;;;;5.80;2.10;;;;;36.80;97596.60;;;;111080;1247;41706;-70
2022/08/08 11:04:06;;;;;;;6.20;2.40;;;;;36.72;97592.00;;;;111245;1247;42088;-70
2022/08/08 11:06:37;;;;;;;6.40;2.60;;;;;36.90;97590.00;;;;111216;1246;42261;-70
2022/08/08 11:09:10;;;;;;;6.50;2.70;;;;;36.72;97587.60;;;;111221;1247;41240;-70
2022/08/08 11:11:47;;;;;;;5.30;2.30;;;;;36.86;97587.20;;;;111177;1246;41145;-69
2022/08/08 11:14:34;;;;;;;5.30;2.40;;;;;37.90;97578.80;;;;111112;1247;41252;-69
2022/08/08 11:17:03;;;;;;;6.70;2.70;;;;;38.96;97574.20;;;;111214;1247;41262;-70
2022/08/08 11:19:32;;;;;;;8.70;2.50;;;;;38.30;97577.60;;;;111334;1247;41691;-70
2022/08/08 11:22:02;;;;;;;7.30;2.80;;;;;38.00;97568.20;;;;111109;1248;41314;-70
2022/08/08 11:24:33;;;;;;;7.40;3.00;;;;;39.04;97567.80;;;;111065;1247;41137;-70
2022/08/08 11:27:04;;;;;;;5.50;2.70;;;;;40.48;97558.60;;;;111152;1246;42084;-70
2022/08/08 11:29:47;;;;;;;5.20;2.30;;;;;40.76;97551.80;;;;110949;1249;41141;-70
2022/08/08 11:32:36;;;;;;;6.30;2.50;;;;;41.38;97549.80;;;;111244;1247;41254;-70
2022/08/08 11:35:12;;;;;;;5.60;2.10;;;;;41.88;97548.00;;;;111162;1247;41129;-72
2022/08/08 11:37:55;;;;;;;5.30;2.30;;;;;42.02;97547.20;;;;111083;1247;41329;-70
2022/08/08 11:40:45;;;;;;;6.60;2.40;;;;;42.40;97554.60;;;;111431;1246;41180;-72
2022/08/08 11:43:21;;;;;;;5.40;2.30;;;;;41.80;97552.20;;;;111389;1247;40971;-71
2022/08/08 11:45:51;;;;;;;5.60;2.30;;;;;40.70;97549.60;;;;111539;1246;41189;-70
2022/08/08 11:48:37;;;;;;;5.00;2.10;;;;;40.14;97545.80;;;;111151;1247;41235;-71
2022/08/08 11:51:08;;;;;;;4.80;2.10;;;;;40.30;97544.60;;;;110915;1249;41601;-71
2022/08/08 11:53:59;;;;;;;3.80;1.60;;;;;40.30;97544.00;;;;111315;1246;40922;-70
2022/08/08 11:56:33;;;;;;;5.90;2.30;;;;;40.46;97541.80;;;;111077;1247;41163;-70
2022/08/08 11:59:11;;;;;;;4.60;2.00;;;;;40.00;97539.00;;;;111098;1247;41233;-70
2022/08/08 12:01:41;;;;;;;5.00;2.00;;;;;40.20;97542.40;;;;111315;1247;41145;-70
2022/08/08 12:04:10;;;;;;;5.00;2.20;;;;;40.20;97548.40;;;;111053;1247;41545;-70
2022/08/08 12:06:41;;;;;;;5.10;2.00;;;;;40.34;97549.00;;;;111303;1247;41716;-72
2022/08/08 12:09:15;;;;;;;5.20;2.00;;;;;40.60;97553.60;;;;111182;1247;41132;-71
2022/08/08 12:11:47;;;;;;;5.20;2.30;;;;;40.92;97548.40;;;;111203;1246;41272;-71
2022/08/08 12:14:26;;;;;;;4.40;2.00;;;;;40.66;97541.00;;;;111248;1246;41142;-71
2022/08/08 12:17:01;;;;;;;6.80;2.80;;;;;41.36;97539.80;;;;110997;1247;42100;-72
2022/08/08 12:19:31;;;;;;;6.50;2.40;;;;;42.12;97533.80;;;;111129;1246;41878;-72
2022/08/08 12:22:20;;;;;;;4.90;2.20;;;;;42.80;97534.00;;;;111493;1247;41202;-71
2022/08/08 12:24:52;;;;;;;6.70;2.50;;;;;41.74;97534.80;;;;111198;1247;41930;-72
2022/08/08 12:27:37;;;;;;;4.40;2.10;;;;;40.16;97531.60;;;;111175;1248;41206;-70
2022/08/08 12:30:16;;;;;;;5.50;2.30;;;;;41.62;97527.80;;;;110882;1249;41970;-72
2022/08/08 12:32:58;;;;;;;6.60;2.40;;;;;40.28;97525.40;;;;110985;1247;42074;-73
2022/08/08 12:35:38;;;;;;;7.40;2.60;;;;;40.98;97516.40;;;;111140;1247;41170;-72
2022/08/08 12:38:10;;;;;;;7.10;2.40;;;;;41.18;97515.60;;;;111274;1247;41592;-71
2022/08/08 12:40:48;;;;;;;6.00;2.30;;;;;41.06;97510.60;;;;111352;1246;41151;-72
2022/08/08 12:43:31;;;;;;;3.90;1.80;;;;;41.16;97513.60;;;;111315;1245;41150;-71
2022/08/08 12:46:17;;;;;;;4.50;1.80;;;;;41.38;97512.40;;;;111244;1247;41157;-71
2022/08/08 12:49:00;;;;;;;5.50;2.30;;;;;41.74;97517.20;;;;111366;1246;41151;-70
2022/08/08 12:51:52;;;;;;;5.40;2.00;;;;;40.80;97517.40;;;;110841;1249;41376;-72
2022/08/08 12:54:35;;;;;;;5.00;2.00;;;;;40.72;97522.40;;;;111198;1247;41143;-71
2022/08/08 12:57:22;;;;;;;5.60;2.20;;;;;40.34;97519.20;;;;111306;1247;41235;-71
2022/08/08 12:59:54;;;;;;;12.30;2.50;;;;;39.84;97514.80;;;;111264;1248;41141;-70
2022/08/08 13:02:35;;;;;;;5.70;2.40;;;;;39.24;97513.60;;;;111350;1246;41712;-72
2022/08/08 13:05:19;;;;;;;6.30;2.50;;;;;38.58;97515.00;;;;110851;1247;42400;-72
2022/08/08 13:07:58;;;;;;;6.10;2.40;;;;;37.96;97512.60;;;;111309;1246;41130;-72
2022/08/08 13:10:34;;;;;;;5.50;2.30;;;;;37.30;97506.40;;;;111327;1247;41906;-71
2022/08/08 13:13:27;;;;;;;7.40;2.30;;;;;37.10;97501.60;;;;111177;1246;41272;-70
2022/08/08 13:16:25;;;;;;;5.90;2.60;;;;;36.62;97507.40;;;;111277;1245;41148;-70
2022/08/08 13:19:00;;;;;;;5.40;2.30;;;;;36.62;97508.80;;;;109966;1247;1672154;-72
2022/08/08 13:21:44;;;;;;;6.60;2.00;;;;;36.40;97508.40;;;;111443;1246;42102;-70
2022/08/08 13:24:22;;;;;;;5.80;2.40;;;;;36.30;97515.80;;;;111231;1246;41154;-70
2022/08/08 13:27:12;;;;;;;8.90;2.20;;;;;36.30;97524.00;;;;111035;1247;41266;-70
2022/08/08 13:30:04;;;;;;;4.80;2.10;;;;;36.20;97523.40;;;;111009;1247;41962;-71
2022/08/08 13:32:36;;;;;;;4.50;2.20;;;;;36.10;97521.60;;;;111201;1247;41262;-71
2022/08/08 13:35:09;;;;;;;5.50;2.50;;;;;36.00;97529.00;;;;111181;1247;41144;-69
2022/08/08 13:38:00;;;;;;;6.40;2.40;;;;;35.70;97539.00;;;;111275;1246;42104;-69